Time;durP1;ratioP1;P1;durP2;ratioP2;P2;SDS_P1;SDS_P2;PMS_P1;PMS_P2;Temp;Humidity;BMP_temperature;BMP_pressure;BME280_temperature;BME280_humidity;BME280_pressure;Samples;Min_cycle;Max_cycle;Signal;HPM_P1;HPM_P2
2023/08/06 12:47:01;;;;;;;5.40;1.35;;;;;;;;;;5028852;27;20431;-80
2023/08/06 12:49:28;;;;;;;3.40;1.23;;;;;;;;;;5012539;27;20790;-80
2023/08/06 12:51:56;;;;;;;2.45;0.85;;;22.10;99.80;;;;;;5023441;27;20074;-78
2023/08/06 12:54:22;;;;;;;2.83;0.90;;;21.30;96.20;;;;;;5056119;27;20215;-79
2023/08/06 12:57:36;;;;;;;3.13;1.00;;;22.50;98.30;;;;;;5101174;27;1365109;-75
2023/08/06 13:10:12;;;;;;;1.42;0.77;;;21.60;97.10;;;;;;4957607;28;20047;-78
2023/08/06 13:12:38;;;;;;;3.30;1.05;;;20.30;98.40;;;;;;5057338;28;20032;-77
2023/08/06 13:15:04;;;;;;;1.65;0.70;;;21.10;98.20;;;;;;5042269;28;20469;-77
2023/08/06 13:17:29;;;;;;;2.47;0.73;;;21.00;98.20;;;;;;5039056;28;20056;-78
2023/08/06 13:19:55;;;;;;;2.20;0.95;;;21.20;99.20;;;;;;5042186;28;20893;-76
2023/08/06 13:22:21;;;;;;;2.33;0.93;;;20.80;98.50;;;;;;5055594;28;20151;-76
2023/08/06 13:24:47;;;;;;;2.72;0.82;;;20.70;98.70;;;;;;5043985;28;20070;-77
2023/08/06 13:27:12;;;;;;;3.53;1.00;;;20.70;99.20;;;;;;5056362;28;20043;-76
2023/08/06 13:29:48;;;;;;;41.90;2.60;;;20.60;99.10;;;;;;5057638;28;20027;-91
2023/08/06 13:32:14;;;;;;;2.80;0.90;;;20.60;99.90;;;;;;5042494;28;20044;-90
2023/08/06 13:34:43;;;;;;;1.92;0.80;;;20.90;99.90;;;;;;5036544;28;20122;-87
2023/08/06 13:37:15;;;;;;;6.32;1.00;;;21.80;99.90;;;;;;5005640;28;20536;-90
2023/08/06 13:39:47;;;;;;;2.30;0.70;;;22.30;99.90;;;;;;5000277;28;20049;-91
2023/08/06 13:42:18;;;;;;;;;;;23.50;99.00;;;;;;5010134;28;20049;-88
2023/08/06 13:44:47;;;;;;;2.78;0.90;;;22.80;99.90;;;;;;5022657;28;19928;-86
2023/08/06 13:47:22;;;;;;;2.03;0.50;;;22.60;99.30;;;;;;5016964;28;20033;-88
2023/08/06 13:49:49;;;;;;;5.05;1.10;;;22.70;97.70;;;;;;5014948;28;20041;-84
2023/08/06 13:52:21;;;;;;;2.42;1.08;;;22.70;96.70;;;;;;5016152;28;20071;-83
2023/08/06 13:54:50;;;;;;;2.75;0.70;;;22.70;97.30;;;;;;5011132;28;20041;-85
2023/08/06 13:57:17;;;;;;;4.00;0.60;;;22.50;97.60;;;;;;5039404;28;20048;-88
2023/08/06 13:59:52;;;;;;;2.08;0.70;;;22.40;96.50;;;;;;5015791;28;20104;-85
2023/08/06 14:02:22;;;;;;;1.63;0.73;;;22.30;97.60;;;;;;5036506;28;20049;-86
2023/08/06 14:04:54;;;;;;;2.67;1.50;;;22.30;97.00;;;;;;5032212;28;20041;-87
2023/08/06 14:07:23;;;;;;;3.42;0.90;;;22.10;97.80;;;;;;5018168;28;20703;-88
2023/08/06 14:09:58;;;;;;;1.70;0.63;;;21.70;97.80;;;;;;5030907;28;20546;-84
2023/08/06 14:12:26;;;;;;;4.13;0.90;;;21.80;97.70;;;;;;5020352;28;20037;-88
2023/08/06 14:14:55;;;;;;;2.45;0.60;;;21.40;97.70;;;;;;5001510;28;20096;-90
2023/08/06 14:17:27;;;;;;;1.75;0.60;;;21.40;97.40;;;;;;5003924;28;20748;-88
2023/08/06 14:30:56;;;;;;;3.65;1.10;;;21.70;97.80;;;;;;5016128;28;20044;-89
2023/08/06 14:33:32;;;;;;;2.28;1.10;;;21.00;98.80;;;;;;5010144;28;20053;-89
2023/08/06 14:36:01;;;;;;;3.72;1.80;;;18.40;98.60;;;;;;5013183;28;20122;-91
2023/08/06 14:38:37;;;;;;;2.17;0.85;;;21.00;98.50;;;;;;4984589;28;20714;-90
2023/08/06 14:41:03;;;;;;;2.33;0.85;;;23.00;99.90;;;;;;4995838;28;20140;-90
2023/08/06 14:43:36;;;;;;;3.95;0.95;;;21.10;99.50;;;;;;5021203;28;20037;-91
2023/08/06 14:46:05;;;;;;;1.83;0.90;;;21.30;99.10;;;;;;5004703;28;20041;-90
2023/08/06 14:48:37;;;;;;;2.30;0.90;;;21.20;99.60;;;;;;5015400;28;20041;-88
2023/08/06 14:51:09;;;;;;;1.67;0.73;;;21.20;99.90;;;;;;5019187;28;20038;-90
2023/08/06 14:53:38;;;;;;;2.85;0.70;;;19.70;99.60;;;;;;4990564;28;20433;-89
2023/08/06 14:56:10;;;;;;;2.70;1.08;;;19.50;99.00;;;;;;4991267;28;20158;-91
2023/08/06 14:58:36;;;;;;;1.40;0.60;;;21.30;99.90;;;;;;4990274;28;20114;-92
2023/08/06 15:01:10;;;;;;;1.70;0.60;;;21.50;99.90;;;;;;4987916;28;20049;-87
2023/08/06 15:07:17;;;;;;;3.08;0.90;;;20.60;99.40;;;;;;5025915;28;20501;-91
2023/08/06 15:09:43;;;;;;;1.60;0.80;;;20.90;99.90;;;;;;5027223;28;20065;-89
2023/08/06 15:12:09;;;;;;;3.38;0.55;;;21.20;99.90;;;;;;4999073;28;20121;-90
2023/08/06 15:14:44;;;;;;;2.30;0.85;;;20.80;99.90;;;;;;5008806;28;20037;-91
2023/08/06 15:17:13;;;;;;;2.10;0.60;;;19.00;98.80;;;;;;5022960;28;20108;-89
2023/08/06 15:19:41;;;;;;;3.80;1.23;;;20.60;99.90;;;;;;5039273;28;20048;-91
2023/08/06 15:22:16;;;;;;;1.77;0.93;;;20.50;99.80;;;;;;5011558;28;20343;-91
2023/08/06 15:24:53;;;;;;;2.85;0.60;;;20.60;99.90;;;;;;5004433;28;20119;-92
2023/08/06 15:27:19;;;;;;;1.50;0.73;;;20.50;99.90;;;;;;5013821;28;20041;-91
2023/08/06 15:30:04;;;;;;;2.00;0.70;;;21.00;99.90;;;;;;4998578;28;20738;-94
2023/08/06 15:36:33;;;;;;;2.22;0.95;;;22.80;99.90;;;;;;5017053;28;20056;-91
2023/08/06 15:38:59;;;;;;;2.10;0.93;;;20.20;99.90;;;;;;5007080;28;20344;-87
2023/08/06 15:41:25;;;;;;;1.73;0.70;;;20.10;99.90;;;;;;5024953;28;20064;-93
2023/08/06 15:43:51;;;;;;;3.72;0.70;;;20.60;99.90;;;;;;5023631;28;20065;-93
2023/08/06 15:46:20;;;;;;;2.42;1.00;;;20.10;99.90;;;;;;5020467;28;20440;-88
2023/08/06 15:48:52;;;;;;;1.80;0.75;;;20.50;99.90;;;;;;5018274;28;20041;-92
2023/08/06 15:51:18;;;;;;;3.00;0.77;;;19.90;99.90;;;;;;5015078;28;20123;-91
2023/08/06 15:53:56;;;;;;;1.80;1.20;;;20.40;99.90;;;;;;5015009;28;20113;-91
2023/08/06 16:08:10;;;;;;;2.67;1.15;;;20.30;99.90;;;;;;4950309;23;20057;-78
2023/08/06 16:10:41;;;;;;;2.70;0.77;;;19.90;99.90;;;;;;4961928;28;20447;-76
2023/08/06 16:13:09;;;;;;;3.15;1.10;;;20.00;99.90;;;;;;4945018;28;20053;-78
2023/08/06 16:15:35;;;;;;;3.28;1.05;;;20.00;99.90;;;;;;4920210;28;20069;-78
2023/08/06 16:18:08;;;;;;;3.72;1.00;;;20.10;99.90;;;;;;4918466;28;20077;-80
2023/08/06 16:20:40;;;;;;;2.97;0.90;;;20.20;99.90;;;;;;4955663;28;20062;-79
2023/08/06 16:23:08;;;;;;;5.07;1.10;;;20.30;99.90;;;;;;4978425;28;21814;-78
2023/08/06 16:25:47;;;;;;;3.22;1.10;;;20.40;99.90;;;;;;4944205;28;20065;-77
2023/08/06 16:28:17;;;;;;;2.05;0.93;;;20.50;99.90;;;;;;4942454;28;20062;-76
2023/08/06 16:30:48;;;;;;;3.10;0.98;;;20.60;99.90;;;;;;4950021;28;20054;-77
2023/08/06 16:33:15;;;;;;;3.30;1.00;;;20.60;99.90;;;;;;4947505;28;20294;-78
2023/08/06 16:35:44;;;;;;;2.53;0.80;;;20.70;99.90;;;;;;4966664;28;20055;-76
2023/08/06 16:38:30;;;;;;;2.45;1.00;;;20.60;99.90;;;;;;4957356;28;20585;-76
2023/08/06 16:41:01;;;;;;;2.42;0.95;;;20.60;99.90;;;;;;4961037;28;20046;-82
2023/08/06 16:43:29;;;;;;;6.00;1.20;;;20.50;99.90;;;;;;4949106;28;20057;-76
2023/08/06 16:45:59;;;;;;;3.65;1.17;;;20.40;99.90;;;;;;4950679;28;20053;-81
2023/08/06 16:48:30;;;;;;;2.15;1.00;;;20.30;99.90;;;;;;4927179;28;20066;-81
2023/08/06 16:51:02;;;;;;;3.03;1.08;;;20.30;99.90;;;;;;4956795;28;20646;-77
2023/08/06 16:53:28;;;;;;;2.65;0.93;;;20.30;99.80;;;;;;4938863;28;20061;-79
2023/08/06 16:55:57;;;;;;;2.22;0.77;;;20.30;99.90;;;;;;4958931;28;20061;-78
2023/08/06 16:58:25;;;;;;;2.63;0.80;;;20.30;99.90;;;;;;4944978;28;20814;-79
2023/08/06 17:00:51;;;;;;;3.75;0.90;;;20.30;99.90;;;;;;4959049;28;20089;-77
2023/08/06 17:03:17;;;;;;;3.53;1.10;;;20.30;99.90;;;;;;4938621;28;20557;-77
2023/08/06 17:05:46;;;;;;;6.45;1.10;;;20.20;99.90;;;;;;4946563;28;21732;-82
2023/08/06 17:08:13;;;;;;;1.67;0.80;;;20.20;99.90;;;;;;4946474;28;20060;-76
2023/08/06 17:10:44;;;;;;;1.88;0.88;;;20.10;99.90;;;;;;4957678;28;20057;-77
2023/08/06 17:13:15;;;;;;;4.53;1.15;;;20.00;99.90;;;;;;4955819;28;20101;-80
2023/08/06 17:15:43;;;;;;;3.05;0.82;;;19.90;99.90;;;;;;4945875;28;20089;-80
2023/08/06 17:18:09;;;;;;;3.00;1.05;;;19.80;99.90;;;;;;4950584;28;20061;-77
2023/08/06 17:20:40;;;;;;;2.63;1.20;;;21.60;99.90;;;;;;4955532;28;20061;-79
2023/08/06 17:23:09;;;;;;;2.17;0.73;;;19.60;99.90;;;;;;4960781;28;20061;-83
2023/08/06 17:25:45;;;;;;;4.25;0.88;;;19.50;99.90;;;;;;4943779;28;20151;-86
2023/08/06 17:28:16;;;;;;;4.05;1.02;;;19.50;99.90;;;;;;4941275;28;20753;-79
2023/08/06 17:30:43;;;;;;;3.97;0.80;;;19.30;99.90;;;;;;4939955;28;20054;-80
2023/08/06 17:33:10;;;;;;;1.67;0.80;;;19.30;99.90;;;;;;4935969;28;20053;-79
2023/08/06 17:35:42;;;;;;;2.75;1.00;;;19.20;99.90;;;;;;4959916;28;20057;-80
2023/08/06 17:38:10;;;;;;;;;;;19.20;99.90;;;;;;4941081;28;20076;-80
2023/08/06 17:40:37;;;;;;;;;;;19.10;99.90;;;;;;4956494;28;19925;-83
2023/08/06 17:43:04;;;;;;;;;;;19.10;99.90;;;;;;4962179;28;19926;-84
2023/08/06 17:45:32;;;;;;;;;;;19.10;99.90;;;;;;4961273;28;19929;-75
2023/08/06 17:48:03;;;;;;;;;;;19.20;99.90;;;;;;4942963;28;20288;-79
2023/08/06 17:50:34;;;;;;;;;;;19.20;99.90;;;;;;4955216;28;19930;-78
2023/08/06 17:53:38;;;;;;;;;;;19.30;99.90;;;;;;4949964;28;19932;-82
2023/08/06 17:59:50;;;;;;;;;;;19.30;99.90;;;;;;4974859;28;19939;-78
2023/08/06 18:02:25;;;;;;;;;;;19.30;99.90;;;;;;4942912;28;19925;-72
2023/08/06 18:04:52;;;;;;;;;;;19.10;99.90;;;;;;4979579;28;19929;-79
2023/08/06 18:07:21;;;;;;;;;;;19.00;99.90;;;;;;4950251;28;19925;-78
2023/08/06 18:09:48;;;;;;;;;;;18.80;99.90;;;;;;4955178;28;20011;-79
2023/08/06 18:12:14;;;;;;;;;;;18.60;99.90;;;;;;4945808;28;19975;-77
2023/08/06 18:14:41;;;;;;;;;;;18.40;99.90;;;;;;4945797;28;20323;-79
2023/08/06 18:17:14;;;;;;;;;;;18.10;99.90;;;;;;4950991;28;19968;-81
2023/08/06 18:19:42;;;;;;;;;;;18.00;99.90;;;;;;4971984;28;19940;-78
2023/08/06 18:22:09;;;;;;;;;;;17.80;99.90;;;;;;4961078;28;19929;-81
2023/08/06 18:24:43;;;;;;;;;;;15.10;99.90;;;;;;4947378;28;20539;-80
2023/08/06 18:27:17;;;;;;;;;;;17.50;99.90;;;;;;4960512;28;19929;-78
2023/08/06 18:29:44;;;;;;;;;;;17.40;99.90;;;;;;4942640;28;19929;-79
2023/08/06 18:32:12;;;;;;;;;;;17.30;99.90;;;;;;4931391;28;20261;-77
2023/08/06 18:34:48;;;;;;;;;;;17.20;99.90;;;;;;4942438;28;19972;-76
2023/08/06 18:37:14;;;;;;;;;;;17.10;99.90;;;;;;4958285;28;19929;-73
2023/08/06 18:39:43;;;;;;;;;;;17.00;99.90;;;;;;4942954;28;19925;-79
2023/08/06 18:42:09;;;;;;;;;;;17.00;99.90;;;;;;4956922;28;19930;-80
2023/08/06 18:44:37;;;;;;;;;;;16.90;99.90;;;;;;4956727;28;19925;-78
2023/08/06 18:47:04;;;;;;;;;;;16.80;99.90;;;;;;4962999;28;20030;-77
2023/08/06 18:49:30;;;;;;;;;;;16.80;99.90;;;;;;4943695;28;19929;-76
2023/08/06 18:52:00;;;;;;;;;;;16.70;99.90;;;;;;4952400;28;19932;-78
2023/08/06 18:54:30;;;;;;;;;;;16.60;99.90;;;;;;4949332;28;20067;-78
2023/08/06 18:56:59;;;;;;;;;;;18.10;99.90;;;;;;4941330;28;20411;-77
2023/08/06 18:59:27;;;;;;;;;;;16.60;99.90;;;;;;4608984;28;10000162;-77
2023/08/06 19:02:00;;;;;;;;;;;16.60;99.90;;;;;;4606441;28;9999984;-80
2023/08/06 19:04:26;;;;;;;;;;;16.60;99.90;;;;;;4932457;28;19968;-76
2023/08/06 19:06:54;;;;;;;;;;;16.60;99.90;;;;;;4951777;28;19935;-76
2023/08/06 19:09:21;;;;;;;;;;;16.50;99.90;;;;;;4951058;28;19956;-77
2023/08/06 19:11:47;;;;;;;;;;;16.50;99.90;;;;;;4924499;28;20589;-74
2023/08/06 19:14:13;;;;;;;;;;;15.40;99.90;;;;;;4950872;28;19932;-76
2023/08/06 19:16:45;;;;;;;;;;;16.40;99.90;;;;;;4956795;28;20044;-80
2023/08/06 19:19:13;;;;;;;;;;;16.40;99.90;;;;;;4927959;28;20479;-82
2023/08/06 19:21:41;;;;;;;;;;;16.40;99.90;;;;;;4939628;28;20110;-76
2023/08/06 19:24:09;;;;;;;;;;;16.30;99.90;;;;;;4937207;28;21778;-75
2023/08/06 19:26:35;;;;;;;;;;;16.30;99.90;;;;;;4936896;28;20025;-75
2023/08/06 19:29:04;;;;;;;;;;;16.30;99.90;;;;;;4937360;28;19929;-77
2023/08/06 19:31:30;;;;;;;;;;;16.30;99.90;;;;;;4951951;28;21891;-84
2023/08/06 19:33:56;;;;;;;;;;;16.30;99.90;;;;;;4936364;28;19976;-79
2023/08/06 19:36:22;;;;;;;;;;;16.30;99.90;;;;;;4953692;28;20333;-78
2023/08/06 19:38:49;;;;;;;;;;;16.20;99.90;;;;;;4941698;28;19925;-74
2023/08/06 19:41:16;;;;;;;;;;;16.20;99.90;;;;;;4942411;28;19929;-77
2023/08/06 19:43:42;;;;;;;;;;;16.20;99.90;;;;;;4950501;28;21467;-75
2023/08/06 19:46:08;;;;;;;;;;;16.20;99.90;;;;;;4941644;28;19925;-77
2023/08/06 19:48:34;;;;;;;;;;;16.20;99.90;;;;;;4940131;28;19933;-77
2023/08/06 19:51:04;;;;;;;;;;;16.10;99.90;;;;;;4950877;28;20019;-81
2023/08/06 19:53:34;;;;;;;;;;;16.10;99.90;;;;;;4936576;28;20916;-84
2023/08/06 19:56:01;;;;;;;;;;;16.10;99.90;;;;;;4967628;28;19929;-78
2023/08/06 19:58:27;;;;;;;;;;;16.00;99.90;;;;;;4978859;28;19936;-77
2023/08/06 20:00:53;;;;;;;;;;;15.90;99.90;;;;;;4978904;28;19929;-78
2023/08/06 20:03:19;;;;;;;;;;;15.90;99.90;;;;;;4966553;28;19925;-82
2023/08/06 20:05:45;;;;;;;;;;;15.80;99.90;;;;;;4979247;28;20664;-80
2023/08/06 20:08:10;;;;;;;;;;;15.80;99.90;;;;;;4976567;28;19971;-76
2023/08/06 20:10:36;;;;;;;;;;;15.70;99.90;;;;;;4977202;28;19925;-81
2023/08/06 20:13:02;;;;;;;;;;;15.60;99.90;;;;;;4976383;28;20322;-79
2023/08/06 20:15:28;;;;;;;;;;;15.50;99.90;;;;;;4978928;28;19925;-76
2023/08/06 20:17:54;;;;;;;;;;;15.50;99.90;;;;;;4963338;28;20150;-78
2023/08/06 20:20:20;;;;;;;;;;;15.40;99.90;;;;;;4977492;28;19926;-80
2023/08/06 20:22:46;;;;;;;;;;;15.30;99.90;;;;;;4971172;28;20173;-75
2023/08/06 20:25:11;;;;;;;;;;;15.10;99.90;;;;;;4971022;28;19988;-77
2023/08/06 20:27:37;;;;;;;;;;;15.00;99.90;;;;;;4960645;28;19939;-82
2023/08/06 20:30:04;;;;;;;;;;;14.90;99.90;;;;;;4926746;28;20011;-78
2023/08/06 20:32:30;;;;;;;;;;;14.70;99.90;;;;;;4931737;28;19933;-79
2023/08/06 20:34:58;;;;;;;;;;;14.60;99.90;;;;;;4938015;28;19926;-81
2023/08/06 20:37:25;;;;;;;;;;;14.60;99.90;;;;;;4973058;28;20211;-77
2023/08/06 20:39:51;;;;;;;;;;;14.50;99.90;;;;;;4928021;28;21373;-82
2023/08/06 20:42:17;;;;;;;;;;;14.40;99.90;;;;;;4972821;28;19925;-79
2023/08/06 20:44:45;;;;;;;;;;;14.40;99.90;;;;;;4976283;28;19932;-80
2023/08/06 20:47:11;;;;;;;;;;;14.30;99.90;;;;;;4977202;28;20012;-76
2023/08/06 20:49:36;;;;;;;;;;;14.20;99.90;;;;;;4982632;28;19932;-78
2023/08/06 20:52:02;;;;;;;;;;;14.10;99.90;;;;;;4976653;28;19926;-82
2023/08/06 20:54:28;;;;;;;;;;;14.10;99.90;;;;;;4977984;28;19925;-79
2023/08/06 20:56:53;;;;;;;;;;;14.00;99.90;;;;;;4982695;28;19925;-81
2023/08/06 20:59:19;;;;;;;;;;;13.90;99.90;;;;;;4975384;28;19921;-79
2023/08/06 21:01:45;;;;;;;;;;;13.90;99.90;;;;;;4978957;28;19984;-81
2023/08/06 21:04:12;;;;;;;;;;;13.80;99.90;;;;;;4977670;28;19932;-79
2023/08/06 21:06:37;;;;;;;;;;;13.70;99.90;;;;;;4978300;28;19947;-80
2023/08/06 21:09:03;;;;;;;;;;;13.70;99.90;;;;;;4977398;28;20364;-85
2023/08/06 21:11:29;;;;;;;;;;;14.40;99.90;;;;;;4961418;28;19926;-77
2023/08/06 21:13:54;;;;;;;;;;;13.60;99.90;;;;;;4976260;28;19929;-79
2023/08/06 21:16:20;;;;;;;;;;;13.50;99.90;;;;;;4969246;28;19933;-75
2023/08/06 21:18:46;;;;;;;;;;;13.50;99.90;;;;;;4979634;28;20004;-78
2023/08/06 21:21:11;;;;;;;;;;;13.40;99.90;;;;;;4977508;28;19932;-80
2023/08/06 21:23:37;;;;;;;;;;;13.40;99.90;;;;;;4979969;28;19961;-82
2023/08/06 21:26:04;;;;;;;;;;;13.40;99.90;;;;;;4983332;28;19925;-83
2023/08/06 21:28:31;;;;;;;;;;;13.30;99.90;;;;;;4982153;28;20747;-74
2023/08/06 21:31:00;;;;;;;;;;;13.20;99.90;;;;;;4978392;28;20749;-76
2023/08/06 21:33:26;;;;;;;;;;;13.20;99.90;;;;;;4965430;28;20005;-80
2023/08/06 21:35:53;;;;;;;;;;;13.20;99.90;;;;;;4967158;28;20016;-86
2023/08/06 21:38:19;;;;;;;;;;;13.20;99.90;;;;;;4978410;28;19926;-79
2023/08/06 21:40:45;;;;;;;;;;;13.20;99.90;;;;;;4973716;28;19932;-79
2023/08/06 21:43:11;;;;;;;;;;;13.10;99.90;;;;;;4976992;28;19946;-80
2023/08/06 21:45:37;;;;;;;;;;;13.10;99.90;;;;;;4959774;28;20122;-75
2023/08/06 21:48:02;;;;;;;;;;;13.10;99.90;;;;;;4981229;28;20367;-77
2023/08/06 21:50:28;;;;;;;;;;;13.00;99.90;;;;;;4964711;28;19926;-79
2023/08/06 21:52:55;;;;;;;;;;;13.00;99.90;;;;;;4994480;28;19937;-76
2023/08/06 21:55:20;;;;;;;;;;;13.10;99.90;;;;;;4971634;28;19930;-76
2023/08/06 21:57:48;;;;;;;;;;;13.00;99.90;;;;;;4961188;28;19925;-77
2023/08/06 22:00:15;;;;;;;;;;;13.00;99.90;;;;;;4958924;28;19925;-74
2023/08/06 22:02:41;;;;;;;;;;;13.00;99.90;;;;;;4980657;28;19934;-86
2023/08/06 22:05:07;;;;;;;;;;;13.00;99.90;;;;;;4972531;28;19930;-83
2023/08/06 22:07:33;;;;;;;;;;;13.00;99.90;;;;;;4970870;28;20395;-79
2023/08/06 22:09:59;;;;;;;;;;;13.00;99.90;;;;;;4973907;28;19926;-76
2023/08/06 22:12:24;;;;;;;;;;;13.00;99.90;;;;;;4982324;28;20697;-77
2023/08/06 22:14:50;;;;;;;;;;;13.00;99.90;;;;;;4972570;28;20686;-79
2023/08/06 22:17:16;;;;;;;;;;;13.00;99.90;;;;;;4959454;28;19933;-75
2023/08/06 22:19:41;;;;;;;;;;;13.00;99.90;;;;;;4986468;28;20283;-79
2023/08/06 22:22:07;;;;;;;;;;;12.90;99.90;;;;;;4981889;28;19925;-82
2023/08/06 22:24:33;;;;;;;;;;;12.90;99.90;;;;;;4985044;28;20069;-76
2023/08/06 22:26:58;;;;;;;;;;;12.80;99.90;;;;;;4978523;28;19965;-78
2023/08/06 22:29:24;;;;;;;;;;;12.80;99.90;;;;;;4985554;28;20396;-74
2023/08/06 22:31:50;;;;;;;;;;;12.80;99.90;;;;;;4984163;28;19932;-77
2023/08/06 22:34:15;;;;;;;;;;;12.30;99.90;;;;;;4978179;28;20001;-83
2023/08/06 22:36:42;;;;;;;;;;;12.70;99.90;;;;;;4981773;28;19992;-83
2023/08/06 22:39:08;;;;;;;;;;;12.70;99.90;;;;;;4977318;28;20020;-75
2023/08/06 22:41:33;;;;;;;;;;;12.70;99.90;;;;;;4983947;28;19965;-79
2023/08/06 22:43:59;;;;;;;;;;;12.70;99.90;;;;;;4974609;28;19926;-77
2023/08/06 22:46:25;;;;;;;;;;;12.70;99.90;;;;;;4985558;28;19930;-76
2023/08/06 22:48:51;;;;;;;;;;;12.70;99.90;;;;;;4985208;28;20175;-79
2023/08/06 22:51:16;;;;;;;;;;;12.60;99.90;;;;;;4981423;28;20686;-73
2023/08/06 22:53:42;;;;;;;;;;;12.60;99.90;;;;;;4960445;28;19926;-88
2023/08/06 22:56:08;;;;;;;;;;;12.60;99.90;;;;;;4980246;28;20125;-82
2023/08/06 22:58:33;;;;;;;;;;;12.60;99.90;;;;;;4983520;28;19926;-81
2023/08/06 23:01:01;;;;;;;;;;;12.60;99.90;;;;;;4976635;28;19933;-84
2023/08/06 23:03:27;;;;;;;;;;;12.60;99.90;;;;;;4981980;28;19975;-85
2023/08/06 23:05:53;;;;;;;;;;;12.60;99.90;;;;;;4981253;28;19982;-78
2023/08/06 23:08:19;;;;;;;;;;;12.60;99.90;;;;;;4972544;28;20780;-80
2023/08/06 23:10:44;;;;;;;;;;;12.60;99.90;;;;;;4976715;28;19979;-81
2023/08/06 23:13:10;;;;;;;;;;;12.50;99.90;;;;;;4975998;28;19932;-89
2023/08/06 23:15:36;;;;;;;;;;;12.50;99.90;;;;;;4972912;28;19937;-77
2023/08/06 23:18:01;;;;;;;;;;;12.50;99.90;;;;;;4982663;28;20034;-81
2023/08/06 23:20:27;;;;;;;;;;;9.70;99.90;;;;;;4981397;28;19934;-80
2023/08/06 23:22:53;;;;;;;;;;;12.60;99.90;;;;;;4969913;28;19932;-75
2023/08/06 23:25:19;;;;;;;;;;;12.60;99.90;;;;;;4979612;28;19932;-81
2023/08/06 23:27:44;;;;;;;;;;;12.90;99.90;;;;;;4985006;28;19925;-81
2023/08/06 23:30:10;;;;;;;;;;;12.60;99.90;;;;;;4979267;28;19926;-86
2023/08/06 23:32:36;;;;;;;;;;;12.60;99.90;;;;;;4985577;28;19957;-83
2023/08/06 23:35:02;;;;;;;;;;;12.60;99.90;;;;;;4976956;28;20800;-77
2023/08/06 23:37:28;;;;;;;;;;;12.70;99.90;;;;;;4968192;28;19926;-79
2023/08/06 23:39:55;;;;;;;;;;;12.60;99.90;;;;;;4979565;28;19932;-77
2023/08/06 23:42:21;;;;;;;;;;;12.70;99.90;;;;;;4968653;28;19926;-79
2023/08/06 23:44:47;;;;;;;;;;;12.70;99.90;;;;;;4976145;28;19922;-74
2023/08/06 23:47:13;;;;;;;;;;;12.80;99.90;;;;;;4967813;28;19932;-82
2023/08/06 23:49:38;;;;;;;;;;;12.80;99.90;;;;;;4973673;28;19925;-79
2023/08/06 23:52:04;;;;;;;;;;;12.80;99.90;;;;;;4978027;28;19995;-76
2023/08/06 23:54:30;;;;;;;;;;;12.90;99.90;;;;;;4979797;28;19961;-75
2023/08/06 23:56:55;;;;;;;;;;;13.30;99.90;;;;;;4966163;28;19979;-78
2023/08/06 23:59:21;;;;;;;;;;;13.00;99.90;;;;;;4983747;28;19925;-75
